createdAt,value
2023-03-18T00:00:27.940Z,0.00
2023-03-18T00:01:27.993Z,0.00
2023-03-18T00:02:27.942Z,0.00
2023-03-18T00:03:27.901Z,0.00
2023-03-18T00:04:27.895Z,0.00
2023-03-18T00:05:27.898Z,0.00
2023-03-18T00:06:27.906Z,0.00
2023-03-18T00:07:27.865Z,0.00
2023-03-18T00:08:27.849Z,0.00
2023-03-18T00:09:27.868Z,0.00
2023-03-18T00:10:27.835Z,0.00
2023-03-18T00:11:27.830Z,0.00
2023-03-18T00:12:27.810Z,0.00
2023-03-18T00:13:27.804Z,0.00
2023-03-18T00:14:27.821Z,0.00
2023-03-18T00:15:27.797Z,0.00
2023-03-18T00:16:27.891Z,0.00
2023-03-18T00:17:27.802Z,0.00
2023-03-18T00:18:27.752Z,0.00
2023-03-18T00:19:27.777Z,0.00
2023-03-18T00:20:27.730Z,0.00
2023-03-18T00:21:27.713Z,0.00
2023-03-18T00:22:27.705Z,0.00
2023-03-18T00:23:27.694Z,0.00
2023-03-18T00:24:27.708Z,0.00
2023-03-18T00:25:27.680Z,0.00
2023-03-18T00:26:27.718Z,0.00
2023-03-18T00:27:28.683Z,0.00
2023-03-18T00:28:27.673Z,0.00
2023-03-18T00:29:27.649Z,0.00
2023-03-18T00:30:27.697Z,0.00
2023-03-18T00:31:27.661Z,0.00
2023-03-18T00:32:27.701Z,0.00
2023-03-18T00:33:27.587Z,0.00
2023-03-18T00:34:27.634Z,0.00
2023-03-18T00:35:27.588Z,0.00
2023-03-18T00:36:27.578Z,0.00
2023-03-18T00:37:27.603Z,0.00
2023-03-18T00:38:27.546Z,0.00
2023-03-18T00:39:27.594Z,0.00
2023-03-18T00:40:27.549Z,0.00
2023-03-18T00:41:27.513Z,0.00
2023-03-18T00:42:28.517Z,0.00
2023-03-18T00:43:27.510Z,0.00
2023-03-18T00:44:27.527Z,0.00
2023-03-18T00:45:27.477Z,0.00
2023-03-18T00:46:27.567Z,0.00
2023-03-18T00:47:27.460Z,0.00
2023-03-18T00:48:27.455Z,0.00
2023-03-18T00:49:27.444Z,0.00
2023-03-18T00:50:27.466Z,0.00
2023-03-18T00:51:27.429Z,0.00
2023-03-18T00:52:27.435Z,0.00
2023-03-18T00:53:27.402Z,0.00
2023-03-18T00:54:27.404Z,0.00
2023-03-18T00:55:27.404Z,0.00
2023-03-18T00:56:27.365Z,0.00
2023-03-18T00:57:27.358Z,0.00
2023-03-18T00:58:27.365Z,0.00
2023-03-18T00:59:27.390Z,0.00
2023-03-18T01:00:27.327Z,0.00
2023-03-18T01:01:27.395Z,0.00
2023-03-18T01:02:27.374Z,0.00
2023-03-18T01:03:27.300Z,0.00
2023-03-18T01:04:27.308Z,0.00
2023-03-18T01:05:27.285Z,0.00
2023-03-18T01:06:27.312Z,0.00
2023-03-18T01:07:27.293Z,0.00
2023-03-18T01:08:27.266Z,0.00
2023-03-18T01:09:27.265Z,0.00
2023-03-18T01:10:27.264Z,0.00
2023-03-18T01:11:27.229Z,0.00
2023-03-18T01:12:27.222Z,0.00
2023-03-18T01:13:27.191Z,0.00
2023-03-18T01:14:27.219Z,0.00
2023-03-18T01:15:27.188Z,0.00
2023-03-18T01:16:27.229Z,0.00
2023-03-18T01:17:27.163Z,0.00
2023-03-18T01:18:27.232Z,0.00
2023-03-18T01:19:27.141Z,0.00
2023-03-18T01:20:27.152Z,0.00
2023-03-18T01:21:27.133Z,0.00
2023-03-18T01:22:27.133Z,0.00
2023-03-18T01:23:27.090Z,0.00
2023-03-18T01:24:27.101Z,0.00
2023-03-18T01:25:27.101Z,0.00
2023-03-18T01:26:27.083Z,0.00
2023-03-18T01:27:27.085Z,0.00
2023-03-18T01:28:27.052Z,0.00
2023-03-18T01:29:27.066Z,0.00
2023-03-18T01:30:27.049Z,0.00
2023-03-18T01:31:27.082Z,0.00
2023-03-18T01:32:27.007Z,0.00
2023-03-18T01:33:27.003Z,0.00
2023-03-18T01:34:27.039Z,0.00
2023-03-18T01:35:27.015Z,0.00
2023-03-18T01:36:26.983Z,0.00
2023-03-18T01:37:26.981Z,0.00
2023-03-18T01:38:26.969Z,0.00
2023-03-18T01:39:26.966Z,0.00
2023-03-18T01:40:26.926Z,0.00
2023-03-18T01:41:26.979Z,0.00
2023-03-18T01:42:26.917Z,0.00
2023-03-18T01:43:26.924Z,0.00
2023-03-18T01:44:26.960Z,0.00
2023-03-18T01:45:26.949Z,0.00
2023-03-18T01:46:26.868Z,0.00
2023-03-18T01:47:26.908Z,0.00
2023-03-18T01:48:33.776Z,0.00
2023-03-18T01:49:26.872Z,0.00
2023-03-18T01:50:26.837Z,0.00
2023-03-18T01:51:26.822Z,0.00
2023-03-18T01:52:26.814Z,0.00
2023-03-18T01:53:26.853Z,0.00
2023-03-18T01:54:26.812Z,0.00
2023-03-18T01:55:26.793Z,0.00
2023-03-18T01:56:26.788Z,0.00
2023-03-18T01:57:26.778Z,0.00
2023-03-18T01:58:26.756Z,0.00
2023-03-18T01:59:26.759Z,0.00
2023-03-18T02:00:26.748Z,0.00
2023-03-18T02:01:26.802Z,0.00
2023-03-18T02:02:26.714Z,0.00
2023-03-18T02:03:26.702Z,0.00
2023-03-18T02:04:26.685Z,0.00
2023-03-18T02:05:26.667Z,0.00
2023-03-18T02:06:26.701Z,0.00
2023-03-18T02:07:26.666Z,0.00
2023-03-18T02:08:26.675Z,0.00
2023-03-18T02:09:26.662Z,0.00
2023-03-18T02:10:26.630Z,0.00
2023-03-18T02:11:26.622Z,0.00
2023-03-18T02:12:26.643Z,0.00
2023-03-18T02:13:26.616Z,0.00
2023-03-18T02:14:26.637Z,0.00
2023-03-18T02:15:26.593Z,0.00
2023-03-18T02:16:26.587Z,0.00
2023-03-18T02:17:26.585Z,0.00
2023-03-18T02:18:26.556Z,0.00
2023-03-18T02:19:26.549Z,0.00
2023-03-18T02:20:26.549Z,0.00
2023-03-18T02:21:26.702Z,0.00
2023-03-18T02:22:26.518Z,0.00
2023-03-18T02:23:26.528Z,0.00
2023-03-18T02:24:26.490Z,0.00
2023-03-18T02:25:26.491Z,0.00
2023-03-18T02:26:26.502Z,0.00
2023-03-18T02:27:26.484Z,0.00
2023-03-18T02:28:26.452Z,0.00
2023-03-18T02:29:26.505Z,0.00
2023-03-18T02:30:26.439Z,0.00
2023-03-18T02:31:26.466Z,0.00
2023-03-18T02:32:26.416Z,0.00
2023-03-18T02:33:26.409Z,0.00
2023-03-18T02:34:26.485Z,0.00
2023-03-18T02:35:26.400Z,0.00
2023-03-18T02:36:26.381Z,0.00
2023-03-18T02:37:26.393Z,0.00
2023-03-18T02:38:26.355Z,0.00
2023-03-18T02:39:26.355Z,0.00
2023-03-18T02:40:26.381Z,0.00
2023-03-18T02:41:26.321Z,0.00
2023-03-18T02:42:27.317Z,0.00
2023-03-18T02:43:26.304Z,0.00
2023-03-18T02:44:26.317Z,0.00
2023-03-18T02:45:26.293Z,0.00
2023-03-18T02:46:26.353Z,0.00
2023-03-18T02:47:26.276Z,0.00
2023-03-18T02:48:26.261Z,0.00
2023-03-18T02:49:26.286Z,0.00
2023-03-18T02:50:26.241Z,0.00
2023-03-18T02:51:26.245Z,0.00
2023-03-18T02:52:26.215Z,0.00
2023-03-18T02:53:26.219Z,0.00
2023-03-18T02:54:26.218Z,0.00
2023-03-18T02:55:26.195Z,0.00
2023-03-18T02:56:26.246Z,0.00
2023-03-18T02:57:26.225Z,0.00
2023-03-18T02:58:26.161Z,0.00
2023-03-18T02:59:26.162Z,0.00
2023-03-18T03:00:26.150Z,0.00
2023-03-18T03:01:26.203Z,0.00
2023-03-18T03:02:26.153Z,0.00
2023-03-18T03:03:26.158Z,0.00
2023-03-18T03:04:26.109Z,0.00
2023-03-18T03:05:26.138Z,0.00
2023-03-18T03:06:26.081Z,0.00
2023-03-18T03:07:26.119Z,0.00
2023-03-18T03:08:26.075Z,0.00
2023-03-18T03:09:26.054Z,0.00
2023-03-18T03:10:26.131Z,0.00
2023-03-18T03:11:26.044Z,0.00
2023-03-18T03:12:26.042Z,0.00
2023-03-18T03:13:26.035Z,0.00
2023-03-18T03:14:26.026Z,0.00
2023-03-18T03:15:26.014Z,0.00
2023-03-18T03:16:26.030Z,0.00
2023-03-18T03:17:25.969Z,0.00
2023-03-18T03:18:25.973Z,0.00
2023-03-18T03:19:25.954Z,0.00
2023-03-18T03:20:25.953Z,0.00
2023-03-18T03:21:25.958Z,0.00
2023-03-18T03:22:25.925Z,0.00
2023-03-18T03:23:25.909Z,0.00
2023-03-18T03:24:26.000Z,0.00
2023-03-18T03:25:25.918Z,0.00
2023-03-18T03:26:25.883Z,0.00
2023-03-18T03:27:25.901Z,0.00
2023-03-18T03:28:25.863Z,0.00
2023-03-18T03:29:25.847Z,0.00
2023-03-18T03:30:25.867Z,0.00
2023-03-18T03:31:25.904Z,0.00
2023-03-18T03:32:25.833Z,0.00
2023-03-18T03:33:25.813Z,0.00
2023-03-18T03:34:26.800Z,0.00
2023-03-18T03:35:25.892Z,0.00
2023-03-18T03:36:25.785Z,0.00
2023-03-18T03:37:25.798Z,0.00
2023-03-18T03:38:25.774Z,0.00
2023-03-18T03:39:25.767Z,0.00
2023-03-18T03:40:25.772Z,0.00
2023-03-18T03:41:25.788Z,0.00
2023-03-18T03:42:25.725Z,0.00
2023-03-18T03:43:25.716Z,0.00
2023-03-18T03:44:25.706Z,0.00
2023-03-18T03:45:25.725Z,0.00
2023-03-18T03:46:25.731Z,0.00
2023-03-18T03:47:25.675Z,0.00
2023-03-18T03:48:25.684Z,0.00
2023-03-18T03:49:25.654Z,0.00
2023-03-18T03:50:25.643Z,0.00
2023-03-18T03:51:25.667Z,0.00
2023-03-18T03:52:25.641Z,0.00
2023-03-18T03:53:25.614Z,0.00
2023-03-18T03:54:25.632Z,0.00
2023-03-18T03:55:25.608Z,0.00
2023-03-18T03:56:25.660Z,0.00
2023-03-18T03:57:25.575Z,0.00
2023-03-18T03:58:25.564Z,0.00
2023-03-18T03:59:25.612Z,0.00
2023-03-18T04:00:25.555Z,0.00
2023-03-18T04:01:25.560Z,0.00
2023-03-18T04:02:25.572Z,0.00
2023-03-18T04:03:25.548Z,0.00
2023-03-18T04:04:25.549Z,0.00
2023-03-18T04:05:25.527Z,0.00
2023-03-18T04:06:25.475Z,0.00
2023-03-18T04:07:25.533Z,0.00
2023-03-18T04:08:25.462Z,0.00
2023-03-18T04:09:25.495Z,0.00
2023-03-18T04:10:25.435Z,0.00
2023-03-18T04:11:25.438Z,0.00
2023-03-18T04:12:25.461Z,0.00
2023-03-18T04:13:25.424Z,0.00
2023-03-18T04:14:25.404Z,0.00
2023-03-18T04:15:25.399Z,0.00
2023-03-18T04:16:25.459Z,0.00
2023-03-18T04:17:25.386Z,0.00
2023-03-18T04:18:25.383Z,0.00
2023-03-18T04:19:25.355Z,0.00
2023-03-18T04:20:25.369Z,0.00
2023-03-18T04:21:25.340Z,0.00
2023-03-18T04:22:25.331Z,0.00
2023-03-18T04:23:25.399Z,0.00
2023-03-18T04:24:25.337Z,0.00
2023-03-18T04:25:25.291Z,0.00
2023-03-18T04:26:25.280Z,0.00
2023-03-18T04:27:25.286Z,0.00
2023-03-18T04:28:25.268Z,0.00
2023-03-18T04:29:25.296Z,0.00
2023-03-18T04:30:25.254Z,0.00
2023-03-18T04:31:25.258Z,0.00
2023-03-18T04:32:25.228Z,0.00
2023-03-18T04:33:25.214Z,0.00
2023-03-18T04:34:25.196Z,0.00
2023-03-18T04:35:25.189Z,0.00
2023-03-18T04:36:25.199Z,0.00
2023-03-18T04:37:25.161Z,0.00
2023-03-18T04:38:25.145Z,0.00
2023-03-18T04:39:26.141Z,0.00
2023-03-18T04:40:25.151Z,0.00
2023-03-18T04:41:25.139Z,0.00
2023-03-18T04:42:25.180Z,0.00
2023-03-18T04:43:25.098Z,0.00
2023-03-18T04:44:25.092Z,0.00
2023-03-18T04:45:25.103Z,0.00
2023-03-18T04:46:25.148Z,0.00
2023-03-18T04:47:25.057Z,0.00
2023-03-18T04:48:26.070Z,0.00
2023-03-18T04:49:25.049Z,0.00
2023-03-18T04:50:25.053Z,0.00
2023-03-18T04:51:25.022Z,0.00
2023-03-18T04:52:25.006Z,0.00
2023-03-18T04:53:25.009Z,0.00
2023-03-18T04:54:25.988Z,0.00
2023-03-18T04:55:24.997Z,0.00
2023-03-18T04:56:25.020Z,0.00
2023-03-18T04:57:24.969Z,0.00
2023-03-18T04:58:24.965Z,0.00
2023-03-18T04:59:24.984Z,0.00
2023-03-18T05:00:24.957Z,0.00
2023-03-18T05:01:24.928Z,0.00
2023-03-18T05:02:24.935Z,0.00
2023-03-18T05:03:24.898Z,0.00
2023-03-18T05:04:24.939Z,0.00
2023-03-18T05:05:24.879Z,0.00
2023-03-18T05:06:24.865Z,0.00
2023-03-18T05:07:24.889Z,0.00
2023-03-18T05:08:24.853Z,0.00
2023-03-18T05:09:24.864Z,0.00
2023-03-18T05:10:24.842Z,0.00
2023-03-18T05:11:24.823Z,0.00
2023-03-18T05:12:24.817Z,0.00
2023-03-18T05:13:24.805Z,0.00
2023-03-18T05:14:24.818Z,0.00
2023-03-18T05:15:24.777Z,0.00
2023-03-18T05:16:24.826Z,0.00
2023-03-18T05:17:24.756Z,0.00
2023-03-18T05:18:25.785Z,0.00
2023-03-18T05:19:24.757Z,0.00
2023-03-18T05:20:24.771Z,0.00
2023-03-18T05:21:24.744Z,5.62
2023-03-18T05:22:24.732Z,5.62
2023-03-18T05:23:24.762Z,5.62
2023-03-18T05:24:24.685Z,5.62
2023-03-18T05:25:24.679Z,5.62
2023-03-18T05:26:24.662Z,11.25
2023-03-18T05:27:24.761Z,11.25
2023-03-18T05:28:24.650Z,11.25
2023-03-18T05:29:24.675Z,11.25
2023-03-18T05:30:24.653Z,16.88
2023-03-18T05:31:24.688Z,16.88
2023-03-18T05:32:24.622Z,22.50
2023-03-18T05:33:24.617Z,22.50
2023-03-18T05:34:24.583Z,22.50
2023-03-18T05:35:24.576Z,22.50
2023-03-18T05:36:24.593Z,22.50
2023-03-18T05:37:24.552Z,22.50
2023-03-18T05:38:24.559Z,22.50
2023-03-18T05:39:24.540Z,22.50
2023-03-18T05:40:24.527Z,28.12
2023-03-18T05:41:24.512Z,28.12
2023-03-18T05:42:24.544Z,28.12
2023-03-18T05:43:24.496Z,28.12
2023-03-18T05:44:24.483Z,28.12
2023-03-18T05:45:24.496Z,33.75
2023-03-18T05:46:24.477Z,33.75
2023-03-18T05:47:24.479Z,33.75
2023-03-18T05:48:24.444Z,39.38
2023-03-18T05:49:24.448Z,39.38
2023-03-18T05:50:24.453Z,45.00
2023-03-18T05:51:24.407Z,45.00
2023-03-18T05:52:24.390Z,50.62
2023-03-18T05:53:24.406Z,50.62
2023-03-18T05:54:24.390Z,56.25
2023-03-18T05:55:24.393Z,61.88
2023-03-18T05:56:24.365Z,61.88
2023-03-18T05:57:24.369Z,61.88
2023-03-18T05:58:24.385Z,56.25
2023-03-18T05:59:24.368Z,50.62
2023-03-18T06:00:24.349Z,50.62
2023-03-18T06:01:25.861Z,45.00
2023-03-18T06:02:24.355Z,45.00
2023-03-18T06:03:24.328Z,45.00
2023-03-18T06:04:24.316Z,50.62
2023-03-18T06:05:24.321Z,50.62
2023-03-18T06:06:24.267Z,56.25
2023-03-18T06:07:24.263Z,56.25
2023-03-18T06:08:24.241Z,56.25
2023-03-18T06:09:24.238Z,61.88
2023-03-18T06:10:24.234Z,67.50
2023-03-18T06:11:24.208Z,73.12
2023-03-18T06:12:24.204Z,84.38
2023-03-18T06:13:24.201Z,84.38
2023-03-18T06:14:24.182Z,90.00
2023-03-18T06:15:24.194Z,95.62
2023-03-18T06:16:24.358Z,101.25
2023-03-18T06:17:24.160Z,106.88
2023-03-18T06:18:24.342Z,112.50
2023-03-18T06:19:24.140Z,118.12
2023-03-18T06:20:24.146Z,129.38
2023-03-18T06:21:24.119Z,135.00
2023-03-18T06:22:24.095Z,157.50
2023-03-18T06:23:24.175Z,180.00
2023-03-18T06:24:24.084Z,180.00
2023-03-18T06:25:24.090Z,191.25
2023-03-18T06:26:24.092Z,196.88
2023-03-18T06:27:24.048Z,202.50
2023-03-18T06:28:24.045Z,208.12
2023-03-18T06:29:24.033Z,202.50
2023-03-18T06:30:24.040Z,202.50
2023-03-18T06:31:24.055Z,202.50
2023-03-18T06:32:24.098Z,202.50
2023-03-18T06:33:24.015Z,208.12
2023-03-18T06:34:24.026Z,219.38
2023-03-18T06:35:23.985Z,230.62
2023-03-18T06:36:23.958Z,241.88
2023-03-18T06:37:23.960Z,270.00
2023-03-18T06:38:23.990Z,427.50
2023-03-18T06:39:23.957Z,286.88
2023-03-18T06:40:23.946Z,298.12
2023-03-18T06:41:23.911Z,331.88
2023-03-18T06:42:23.946Z,365.62
2023-03-18T06:43:23.920Z,787.50
2023-03-18T06:44:23.890Z,1231.88
2023-03-18T06:45:23.888Z,1141.88
2023-03-18T06:46:23.956Z,281.25
2023-03-18T06:47:23.881Z,258.75
2023-03-18T06:48:23.849Z,241.88
2023-03-18T06:49:23.857Z,230.62
2023-03-18T06:50:23.817Z,219.38
2023-03-18T06:51:23.823Z,213.75
2023-03-18T06:52:23.821Z,213.75
2023-03-18T06:53:23.810Z,213.75
2023-03-18T06:54:23.812Z,225.00
2023-03-18T06:55:23.776Z,236.25
2023-03-18T06:56:23.836Z,241.88
2023-03-18T06:57:23.760Z,258.75
2023-03-18T06:58:23.762Z,275.62
2023-03-18T06:59:23.768Z,303.75
2023-03-18T07:00:23.761Z,326.25
2023-03-18T07:01:23.790Z,360.00
2023-03-18T07:02:23.782Z,382.50
2023-03-18T07:03:23.704Z,399.38
2023-03-18T07:04:23.799Z,405.00
2023-03-18T07:05:23.688Z,410.62
2023-03-18T07:06:23.673Z,416.25
2023-03-18T07:07:23.687Z,421.88
2023-03-18T07:08:23.663Z,444.38
2023-03-18T07:09:23.669Z,489.38
2023-03-18T07:10:23.655Z,568.12
2023-03-18T07:11:23.615Z,2019.38
2023-03-18T07:12:23.612Z,2441.25
2023-03-18T07:13:23.609Z,1856.25
2023-03-18T07:14:23.601Z,759.38
2023-03-18T07:15:23.600Z,1198.12
2023-03-18T07:16:23.683Z,545.62
2023-03-18T07:17:23.555Z,500.62
2023-03-18T07:18:24.019Z,478.12
2023-03-18T07:19:23.555Z,461.25
2023-03-18T07:20:23.557Z,461.25
2023-03-18T07:21:23.555Z,511.88
2023-03-18T07:22:23.527Z,495.00
2023-03-18T07:23:23.508Z,506.25
2023-03-18T07:24:23.483Z,517.50
2023-03-18T07:25:23.475Z,540.00
2023-03-18T07:26:23.506Z,551.25
2023-03-18T07:27:23.505Z,568.12
2023-03-18T07:28:23.475Z,601.88
2023-03-18T07:29:23.435Z,646.88
2023-03-18T07:30:23.431Z,596.25
2023-03-18T07:31:23.429Z,607.50
2023-03-18T07:32:23.426Z,613.12
2023-03-18T07:33:23.417Z,641.25
2023-03-18T07:34:23.393Z,641.25
2023-03-18T07:35:23.378Z,641.25
2023-03-18T07:36:24.387Z,838.12
2023-03-18T07:37:23.360Z,618.75
2023-03-18T07:38:23.368Z,545.62
2023-03-18T07:39:23.361Z,528.75
2023-03-18T07:40:23.333Z,607.50
2023-03-18T07:41:23.337Z,703.12
2023-03-18T07:42:23.302Z,573.75
2023-03-18T07:43:23.311Z,781.88
2023-03-18T07:44:23.289Z,1395.00
2023-03-18T07:45:23.400Z,804.38
2023-03-18T07:46:23.355Z,838.12
2023-03-18T07:47:23.269Z,2182.50
2023-03-18T07:48:23.278Z,2345.62
2023-03-18T07:49:55.147Z,2081.25
2023-03-18T07:50:23.228Z,866.25
2023-03-18T07:51:23.215Z,984.38
2023-03-18T07:52:23.227Z,1940.62
2023-03-18T07:53:23.203Z,1501.88
2023-03-18T07:54:23.213Z,1321.88
2023-03-18T07:55:23.440Z,1282.50
2023-03-18T07:56:23.174Z,1260.00
2023-03-18T07:57:23.214Z,1248.75
2023-03-18T07:58:23.201Z,1243.12
2023-03-18T07:59:23.202Z,1254.38
2023-03-18T08:00:23.121Z,1282.50
2023-03-18T08:01:23.130Z,1310.62
2023-03-18T08:02:23.122Z,1338.75
2023-03-18T08:03:23.098Z,1361.25
2023-03-18T08:04:23.281Z,1361.25
2023-03-18T08:05:23.074Z,1344.38
2023-03-18T08:06:23.058Z,1338.75
2023-03-18T08:07:23.062Z,1350.00
2023-03-18T08:08:23.049Z,1338.75
2023-03-18T08:09:23.095Z,1361.25
2023-03-18T08:10:23.047Z,1395.00
2023-03-18T08:11:23.055Z,1434.38
2023-03-18T08:12:23.037Z,1501.88
2023-03-18T08:13:22.995Z,1603.12
2023-03-18T08:14:22.991Z,1777.50
2023-03-18T08:15:22.993Z,2030.62
2023-03-18T08:16:23.041Z,2458.12
2023-03-18T08:17:22.987Z,2790.00
2023-03-18T08:18:22.970Z,2750.62
2023-03-18T08:19:22.937Z,2373.75
2023-03-18T08:20:22.934Z,1974.38
2023-03-18T08:21:22.932Z,2013.75
2023-03-18T08:22:22.906Z,1996.88
2023-03-18T08:23:22.913Z,1816.88
2023-03-18T08:24:22.878Z,1788.75
2023-03-18T08:25:22.877Z,1822.50
2023-03-18T08:26:22.897Z,1721.25
2023-03-18T08:27:23.085Z,1648.12
2023-03-18T08:28:22.838Z,1608.75
2023-03-18T08:29:22.843Z,1620.00
2023-03-18T08:30:22.819Z,1721.25
2023-03-18T08:31:22.915Z,1597.50
2023-03-18T08:32:22.827Z,1490.62
2023-03-18T08:33:22.829Z,1456.88
2023-03-18T08:34:22.785Z,1513.12
2023-03-18T08:35:22.782Z,1546.88
2023-03-18T08:36:22.761Z,1546.88
2023-03-18T08:37:22.809Z,1603.12
2023-03-18T08:38:22.763Z,1563.75
2023-03-18T08:39:22.721Z,1563.75
2023-03-18T08:40:22.749Z,1569.38
2023-03-18T08:41:22.711Z,1535.62
2023-03-18T08:42:22.743Z,1597.50
2023-03-18T08:43:22.690Z,1648.12
2023-03-18T08:44:22.676Z,1631.25
2023-03-18T08:45:22.701Z,1603.12
2023-03-18T08:46:22.749Z,1546.88
2023-03-18T08:47:22.678Z,1591.88
2023-03-18T08:48:22.640Z,1636.88
2023-03-18T08:49:22.635Z,1642.50
2023-03-18T08:50:22.632Z,1653.75
2023-03-18T08:51:22.630Z,1698.75
2023-03-18T08:52:22.619Z,1738.12
2023-03-18T08:53:22.638Z,1811.25
2023-03-18T08:54:22.585Z,1918.12
2023-03-18T08:55:22.593Z,1906.88
2023-03-18T08:56:22.566Z,1918.12
2023-03-18T08:57:22.565Z,1901.25
2023-03-18T08:58:22.545Z,1985.62
2023-03-18T08:59:22.613Z,2047.50
2023-03-18T09:00:22.586Z,2008.12
2023-03-18T09:01:22.619Z,2025.00
2023-03-18T09:02:22.513Z,2070.00
2023-03-18T09:03:22.609Z,2160.00
2023-03-18T09:04:22.505Z,2205.00
2023-03-18T09:05:22.516Z,2345.62
2023-03-18T09:06:22.482Z,2553.75
2023-03-18T09:07:22.490Z,2739.38
2023-03-18T09:08:22.480Z,2840.62
2023-03-18T09:09:26.298Z,2790.00
2023-03-18T09:10:24.453Z,2486.25
2023-03-18T09:11:22.429Z,2171.25
2023-03-18T09:12:22.444Z,1906.88
2023-03-18T09:13:22.456Z,1681.88
2023-03-18T09:14:22.397Z,1507.50
2023-03-18T09:15:22.403Z,1434.38
2023-03-18T09:16:22.416Z,1417.50
2023-03-18T09:17:27.030Z,1440.00
2023-03-18T09:18:24.380Z,1423.12
2023-03-18T09:19:22.355Z,1293.75
2023-03-18T09:20:22.351Z,1136.25
2023-03-18T09:21:22.329Z,1029.38
2023-03-18T09:22:22.355Z,956.25
2023-03-18T09:23:22.318Z,922.50
2023-03-18T09:24:22.311Z,905.62
2023-03-18T09:25:22.290Z,888.75
2023-03-18T09:26:22.284Z,888.75
2023-03-18T09:27:22.293Z,877.50
2023-03-18T09:28:22.256Z,871.88
2023-03-18T09:29:22.268Z,866.25
2023-03-18T09:30:22.255Z,860.62
2023-03-18T09:31:22.378Z,849.38
2023-03-18T09:32:22.243Z,843.75
2023-03-18T09:33:22.228Z,832.50
2023-03-18T09:34:22.200Z,821.25
2023-03-18T09:35:22.196Z,815.62
2023-03-18T09:36:22.231Z,810.00
2023-03-18T09:37:22.168Z,810.00
2023-03-18T09:38:22.160Z,810.00
2023-03-18T09:39:22.191Z,798.75
2023-03-18T09:40:22.132Z,793.12
2023-03-18T09:41:22.154Z,787.50
2023-03-18T09:42:22.125Z,787.50
2023-03-18T09:43:22.119Z,781.88
2023-03-18T09:44:22.124Z,781.88
2023-03-18T09:45:22.087Z,776.25
2023-03-18T09:46:22.199Z,781.88
2023-03-18T09:47:22.190Z,770.62
2023-03-18T09:48:22.062Z,770.62
2023-03-18T09:49:22.090Z,776.25
2023-03-18T09:50:22.034Z,770.62
2023-03-18T09:51:22.027Z,765.00
2023-03-18T09:52:22.037Z,765.00
2023-03-18T09:53:22.014Z,759.38
2023-03-18T09:54:22.001Z,759.38
2023-03-18T09:55:22.018Z,759.38
2023-03-18T09:56:21.969Z,753.75
2023-03-18T09:57:21.969Z,753.75
2023-03-18T09:58:21.973Z,748.12
2023-03-18T09:59:21.952Z,742.50
2023-03-18T10:00:21.934Z,731.25
2023-03-18T10:01:21.955Z,720.00
2023-03-18T10:02:21.935Z,703.12
2023-03-18T10:03:21.935Z,691.88
2023-03-18T10:04:21.963Z,686.25
2023-03-18T10:05:21.878Z,680.62
2023-03-18T10:06:21.875Z,680.62
2023-03-18T10:07:21.869Z,675.00
2023-03-18T10:08:21.884Z,669.38
2023-03-18T10:09:21.848Z,669.38
2023-03-18T10:10:21.856Z,663.75
2023-03-18T10:11:21.825Z,663.75
2023-03-18T10:12:22.815Z,658.12
2023-03-18T10:13:21.798Z,658.12
2023-03-18T10:14:21.819Z,658.12
2023-03-18T10:15:21.777Z,652.50
2023-03-18T10:16:21.787Z,646.88
2023-03-18T10:17:21.788Z,641.25
2023-03-18T10:18:21.752Z,641.25
2023-03-18T10:19:21.757Z,641.25
2023-03-18T10:20:21.742Z,641.25
2023-03-18T10:21:21.720Z,641.25
2023-03-18T10:22:21.710Z,641.25
2023-03-18T10:23:21.717Z,635.62
2023-03-18T10:24:21.785Z,635.62
2023-03-18T10:25:21.709Z,641.25
2023-03-18T10:26:21.666Z,646.88
2023-03-18T10:27:21.673Z,630.00
2023-03-18T10:28:21.645Z,630.00
2023-03-18T10:29:21.636Z,624.38
2023-03-18T10:30:21.755Z,624.38
2023-03-18T10:31:21.675Z,618.75
2023-03-18T10:32:52.863Z,618.75
2023-03-18T10:33:29.433Z,613.12
2023-03-18T10:34:29.857Z,613.12
2023-03-18T10:35:21.600Z,613.12
2023-03-18T10:36:21.586Z,607.50
2023-03-18T10:37:21.599Z,596.25
2023-03-18T10:38:21.561Z,607.50
2023-03-18T10:39:21.557Z,596.25
2023-03-18T10:40:21.568Z,613.12
2023-03-18T10:41:23.501Z,618.75
2023-03-18T10:42:22.551Z,596.25
2023-03-18T10:43:21.530Z,573.75
2023-03-18T10:44:21.506Z,585.00
2023-03-18T10:45:21.499Z,585.00
2023-03-18T10:46:21.633Z,590.62
2023-03-18T10:47:21.589Z,596.25
2023-03-18T10:48:21.558Z,534.38
2023-03-18T10:49:21.470Z,562.50
2023-03-18T10:50:21.445Z,573.75
2023-03-18T10:51:21.447Z,590.62
2023-03-18T10:52:21.481Z,585.00
2023-03-18T10:53:21.432Z,607.50
2023-03-18T10:54:21.414Z,607.50
2023-03-18T10:55:21.399Z,607.50
2023-03-18T10:56:21.385Z,607.50
2023-03-18T10:57:21.437Z,607.50
2023-03-18T10:58:21.363Z,596.25
2023-03-18T10:59:21.359Z,590.62
2023-03-18T11:00:21.347Z,585.00
2023-03-18T11:01:23.041Z,585.00
2023-03-18T11:02:22.381Z,607.50
2023-03-18T11:03:21.338Z,607.50
2023-03-18T11:04:21.317Z,607.50
2023-03-18T11:05:21.302Z,601.88
2023-03-18T11:06:21.279Z,585.00
2023-03-18T11:07:21.313Z,585.00
2023-03-18T11:08:21.268Z,585.00
2023-03-18T11:09:21.322Z,562.50
2023-03-18T11:10:21.248Z,568.12
2023-03-18T11:11:21.281Z,540.00
2023-03-18T11:12:21.225Z,534.38
2023-03-18T11:13:21.221Z,540.00
2023-03-18T11:14:21.207Z,528.75
2023-03-18T11:15:21.198Z,528.75
2023-03-18T11:16:21.260Z,545.62
2023-03-18T11:17:21.169Z,545.62
2023-03-18T11:18:21.214Z,545.62
2023-03-18T11:19:21.156Z,573.75
2023-03-18T11:20:21.150Z,585.00
2023-03-18T11:21:21.150Z,590.62
2023-03-18T11:22:21.225Z,596.25
2023-03-18T11:23:21.123Z,601.88
2023-03-18T11:24:21.116Z,601.88
2023-03-18T11:25:21.138Z,601.88
2023-03-18T11:26:22.114Z,601.88
2023-03-18T11:27:21.090Z,596.25
2023-03-18T11:28:21.078Z,568.12
2023-03-18T11:29:21.083Z,573.75
2023-03-18T11:30:33.541Z,568.12
2023-03-18T11:31:23.106Z,568.12
2023-03-18T11:32:21.040Z,568.12
2023-03-18T11:33:21.027Z,545.62
2023-03-18T11:34:21.028Z,545.62
2023-03-18T11:35:21.064Z,551.25
2023-03-18T11:36:20.990Z,551.25
2023-03-18T11:37:21.016Z,551.25
2023-03-18T11:38:20.996Z,545.62
2023-03-18T11:39:20.985Z,545.62
2023-03-18T11:40:21.001Z,523.12
2023-03-18T11:41:20.954Z,534.38
2023-03-18T11:42:20.942Z,517.50
2023-03-18T11:43:20.956Z,528.75
2023-03-18T11:44:20.963Z,511.88
2023-03-18T11:45:20.929Z,517.50
2023-03-18T11:46:20.892Z,511.88
2023-03-18T11:47:20.892Z,517.50
2023-03-18T11:48:20.875Z,511.88
2023-03-18T11:49:20.887Z,506.25
2023-03-18T11:50:20.848Z,495.00
2023-03-18T11:51:20.851Z,500.62
2023-03-18T11:52:20.832Z,495.00
2023-03-18T11:53:20.847Z,461.25
2023-03-18T11:54:20.817Z,495.00
2023-03-18T11:55:20.829Z,500.62
2023-03-18T11:56:20.841Z,540.00
2023-03-18T11:57:20.798Z,523.12
2023-03-18T11:58:20.809Z,551.25
2023-03-18T11:59:20.784Z,556.88
2023-03-18T12:00:20.787Z,590.62
2023-03-18T12:01:20.745Z,601.88
2023-03-18T12:02:20.814Z,635.62
2023-03-18T12:03:20.743Z,658.12
2023-03-18T12:04:20.708Z,663.75
2023-03-18T12:05:20.763Z,630.00
2023-03-18T12:06:20.694Z,624.38
2023-03-18T12:07:20.710Z,630.00
2023-03-18T12:08:20.692Z,618.75
2023-03-18T12:09:20.663Z,663.75
2023-03-18T12:10:20.674Z,686.25
2023-03-18T12:11:20.642Z,680.62
2023-03-18T12:12:20.639Z,669.38
2023-03-18T12:13:21.625Z,663.75
2023-03-18T12:14:20.619Z,669.38
2023-03-18T12:15:20.606Z,658.12
2023-03-18T12:16:20.671Z,646.88
2023-03-18T12:17:20.617Z,630.00
2023-03-18T12:18:20.587Z,618.75
2023-03-18T12:19:20.563Z,601.88
2023-03-18T12:20:20.580Z,618.75
2023-03-18T12:21:20.594Z,618.75
2023-03-18T12:22:20.519Z,630.00
2023-03-18T12:23:20.515Z,624.38
2023-03-18T12:24:20.530Z,624.38
2023-03-18T12:25:20.529Z,551.25
2023-03-18T12:26:20.524Z,624.38
2023-03-18T12:27:20.501Z,641.25
2023-03-18T12:28:20.490Z,658.12
2023-03-18T12:29:20.461Z,652.50
2023-03-18T12:30:20.498Z,646.88
2023-03-18T12:31:20.462Z,646.88
2023-03-18T12:32:20.432Z,652.50
2023-03-18T12:33:20.433Z,630.00
2023-03-18T12:34:20.457Z,630.00
2023-03-18T12:35:20.876Z,635.62
2023-03-18T12:36:21.388Z,663.75
2023-03-18T12:37:20.377Z,680.62
2023-03-18T12:38:20.388Z,646.88
2023-03-18T12:39:20.409Z,663.75
2023-03-18T12:40:20.453Z,658.12
2023-03-18T12:41:20.393Z,658.12
2023-03-18T12:42:20.326Z,652.50
2023-03-18T12:43:20.325Z,641.25
2023-03-18T12:44:20.319Z,596.25
2023-03-18T12:45:20.305Z,545.62
2023-03-18T12:46:20.333Z,568.12
2023-03-18T12:47:20.321Z,551.25